Benjamin Walters — WDG2963 — position and weather

sailwx.info

Track history (hours):
 
Tides and Currents Weather Stations Pressure Air Temp Water Temp Dewpoint Dewpoint Depression Visibility Wind Speed Wind Dir Waves Ship Positions

Benjamin Walters

Owner: Stimmel, Lee D, San Francisco, CA. More information available from US FCC via Universal Licensing System and Coast Guard Vessel Documentation Center.

Last reported at 2017-Dec-17 00:18 UTC. Time now 2017-Dec-17 15:39 UTC.
Position N 37°52' W 122°19'.

Length 22 m.

Type: Sailing vessel. MMSI: 367521060.

Date/timePositionNaut miles runAvg speedWind from/ knotsBaromVisibWave heightAir tempDewpointWater temp
2017-Dec-17 00:18N 37°52' W 122°19'0 0.0
2017-Dec-17 00:00N 37°52' W 122°19'0 0.0
2017-Dec-16 23:30N 37°52' W 122°19'0 0.0
2017-Dec-16 22:57N 37°52' W 122°19'0 0.0
2017-Dec-16 22:30N 37°52' W 122°19'2 3.4
2017-Dec-16 22:00N 37°51' W 122°21'2 3.5
2017-Dec-16 21:30N 37°50' W 122°22'1 1.2
2017-Dec-16 20:56N 37°49' W 122°22'0 0.0
2017-Dec-16 20:29N 37°49' W 122°22'0 0.0
2017-Dec-16 20:00N 37°49' W 122°22'1 2.5
2017-Dec-16 19:30N 37°50' W 122°23'2 3.6
2017-Dec-16 19:00N 37°51' W 122°22'3 5.7
2017-Dec-16 18:30N 37°52' W 122°19'0 0.0
2017-Dec-16 17:54N 37°52' W 122°19'0 0.0
2017-Dec-16 17:30N 37°52' W 122°19'0 0.0
2017-Dec-16 17:00N 37°52' W 122°19'0 0.0
2017-Dec-16 16:30N 37°52' W 122°19'0 0.0
2017-Dec-16 16:00N 37°52' W 122°19'0 0.0
2017-Dec-16 15:30N 37°52' W 122°19'0 0.0
2017-Dec-16 15:00N 37°52' W 122°19'0 0.0
2017-Dec-16 14:27N 37°52' W 122°19'0 0.0
2017-Dec-16 14:00N 37°52' W 122°19'0 0.0
2017-Dec-16 13:30N 37°52' W 122°19'0 0.0
2017-Dec-16 13:00N 37°52' W 122°19'0 0.0
2017-Dec-16 12:30N 37°52' W 122°19'0 0.0
2017-Dec-16 12:00N 37°52' W 122°19'0 0.0
2017-Dec-16 11:30N 37°52' W 122°19'0 0.0
2017-Dec-16 11:00N 37°52' W 122°19'0 0.0
2017-Dec-16 10:30N 37°52' W 122°19'0 0.0
2017-Dec-16 10:00N 37°52' W 122°19'0 0.0
2017-Dec-16 09:30N 37°52' W 122°19'0 0.0
2017-Dec-16 09:00N 37°52' W 122°19'0 0.0
2017-Dec-16 08:30N 37°52' W 122°19'0 0.0
2017-Dec-16 08:00N 37°52' W 122°19'0 0.0
2017-Dec-16 07:24N 37°52' W 122°19'0 0.0
2017-Dec-16 07:00N 37°52' W 122°19'0 0.0
2017-Dec-16 06:30N 37°52' W 122°19'0 0.0
2017-Dec-16 06:00N 37°52' W 122°19'0 0.0
2017-Dec-16 05:30N 37°52' W 122°19'0 0.0
2017-Dec-16 05:00N 37°52' W 122°19'0 0.0
2017-Dec-16 04:30N 37°52' W 122°19'1 2.0
2017-Dec-16 04:00N 37°52' W 122°20'3 5.2
2017-Dec-16 03:29N 37°49' W 122°21'2 4.1
2017-Dec-16 03:00N 37°51' W 122°22'2 3.3
2017-Dec-16 02:18N 37°52' W 122°19'0 0.0
2017-Dec-16 01:57N 37°52' W 122°19'0 0.0
2017-Dec-16 01:30N 37°52' W 122°19'1 1.5
2017-Dec-16 00:58N 37°51' W 122°20'1 1.7
2017-Dec-16 00:28N 37°52' W 122°19'0 0.0
2017-Dec-15 23:52N 37°52' W 122°19'0 0.0
2017-Dec-15 23:25N 37°52' W 122°19'0 0.0
2017-Dec-15 22:55N 37°52' W 122°19'0 0.0
2017-Dec-15 04:16N 37°52' W 122°19'0 0.0
2017-Dec-15 03:58N 37°52' W 122°19'0 0.0
2017-Dec-15 02:28N 37°52' W 122°19'0 0.0
2017-Dec-15 00:49N 37°52' W 122°19'0 0.0
2017-Dec-15 00:28N 37°52' W 122°19'0 0.0
2017-Dec-13 00:43N 37°52' W 122°19'0 0.0
2017-Dec-13 00:25N 37°52' W 122°19'0 0.0
2017-Dec-12 23:59N 37°52' W 122°19'0 0.0
2017-Dec-12 23:29N 37°52' W 122°19'0 0.0
2017-Dec-12 22:56N 37°52' W 122°19'0 0.0
2017-Dec-12 19:27N 37°52' W 122°19'  
2017-Dec-10 00:04N 37°52' W 122°19'0 0.0
2017-Dec-09 23:58N 37°52' W 122°19'0 0.0
2017-Dec-09 23:28N 37°52' W 122°19'0 0.0
2017-Dec-09 22:58N 37°52' W 122°19'0 0.0
2017-Dec-09 22:28N 37°52' W 122°19'0 0.0
2017-Dec-09 21:52N 37°52' W 122°19'0 0.0
2017-Dec-09 21:22N 37°52' W 122°19'0 0.0
2017-Dec-09 20:58N 37°52' W 122°19'0 0.0
2017-Dec-09 20:25N 37°52' W 122°19'0 0.0
2017-Dec-09 19:58N 37°52' W 122°19'0 0.0
2017-Dec-09 19:28N 37°52' W 122°19'0 0.0
2017-Dec-09 18:49N 37°52' W 122°19'0 0.0
2017-Dec-09 18:28N 37°52' W 122°19'0 0.0
2017-Dec-09 17:58N 37°52' W 122°19'0 0.0
2017-Dec-09 03:48N 37°52' W 122°19'0 0.0
2017-Dec-09 03:30N 37°52' W 122°19'0 0.0
2017-Dec-09 03:00N 37°52' W 122°19'0 0.0
2017-Dec-09 02:30N 37°52' W 122°19'0 0.0
2017-Dec-09 02:00N 37°52' W 122°19'0 0.0
2017-Dec-09 01:24N 37°52' W 122°19'0 0.0
2017-Dec-09 01:00N 37°52' W 122°19'0 0.0
2017-Dec-09 00:30N 37°52' W 122°19'0 0.0
2017-Dec-09 00:00N 37°52' W 122°19'0 0.0
2017-Dec-08 23:30N 37°52' W 122°19'0 0.0
2017-Dec-08 23:00N 37°52' W 122°19'0 0.0
2017-Dec-08 22:27N 37°52' W 122°19'0 0.0
2017-Dec-08 22:00N 37°52' W 122°19'0 0.0
2017-Dec-08 21:30N 37°52' W 122°19'0 0.0
2017-Dec-08 21:00N 37°52' W 122°19'0 0.0
2017-Dec-08 20:15N 37°52' W 122°19'0 0.0
2017-Dec-08 20:00N 37°52' W 122°19'0 0.0
2017-Dec-08 19:27N 37°52' W 122°19'0 0.0
2017-Dec-08 18:57N 37°52' W 122°19'0 0.0
2017-Dec-08 18:30N 37°52' W 122°19'0 0.0
2017-Dec-08 18:00N 37°52' W 122°19'0 0.0
2017-Dec-08 17:30N 37°52' W 122°19'0 0.0
2017-Dec-08 16:54N 37°52' W 122°19'0 0.0
2017-Dec-08 16:27N 37°52' W 122°19'0 0.0
2017-Dec-08 16:00N 37°52' W 122°19'0 0.0
2017-Dec-08 15:27N 37°52' W 122°19'0 0.0
2017-Dec-08 15:00N 37°52' W 122°19'0 0.0
2017-Dec-08 14:18N 37°52' W 122°19'0 0.0
2017-Dec-08 13:57N 37°52' W 122°19'0 0.0
2017-Dec-08 13:30N 37°52' W 122°19'0 0.0
2017-Dec-08 12:57N 37°52' W 122°19'0 0.0
2017-Dec-08 12:30N 37°52' W 122°19'0 0.0
2017-Dec-08 11:54N 37°52' W 122°19'0 0.0
2017-Dec-08 11:30N 37°52' W 122°19'0 0.0
2017-Dec-08 11:00N 37°52' W 122°19'0 0.0
2017-Dec-08 10:30N 37°52' W 122°19'0 0.0
2017-Dec-08 10:00N 37°52' W 122°19'0 0.0
2017-Dec-08 09:30N 37°52' W 122°19'0 0.0
2017-Dec-08 09:00N 37°52' W 122°19'0 0.0
2017-Dec-08 08:30N 37°52' W 122°19'0 0.0
2017-Dec-08 08:00N 37°52' W 122°19'0 0.0
2017-Dec-08 07:30N 37°52' W 122°19'0 0.0
2017-Dec-08 06:51N 37°52' W 122°19'0 0.0
2017-Dec-08 06:21N 37°52' W 122°19'0 0.0
2017-Dec-08 05:57N 37°52' W 122°19'0 0.0
2017-Dec-08 05:30N 37°52' W 122°19'0 0.0
2017-Dec-08 05:00N 37°52' W 122°19'0 0.0
2017-Dec-08 04:27N 37°52' W 122°19'0 0.0
2017-Dec-08 04:00N 37°52' W 122°19'0 0.0
2017-Dec-08 03:30N 37°52' W 122°19'0 0.0
2017-Dec-08 02:57N 37°52' W 122°19'0 0.0
2017-Dec-08 02:30N 37°52' W 122°19'0 0.0
2017-Dec-08 01:59N 37°52' W 122°19'0 0.0
2017-Dec-08 01:26N 37°52' W 122°19'0 0.0
2017-Dec-08 00:56N 37°52' W 122°19'0 0.0
2017-Dec-08 00:23N 37°52' W 122°19'0 0.0
2017-Dec-07 23:59N 37°52' W 122°19'0 0.0
2017-Dec-07 23:29N 37°52' W 122°19'0 0.0
2017-Dec-07 22:59N 37°52' W 122°19'0 0.0
2017-Dec-07 22:29N 37°52' W 122°19'0 0.0
2017-Dec-07 21:53N 37°52' W 122°19'0 0.0
2017-Dec-07 21:29N 37°52' W 122°19'0 0.0
2017-Dec-07 20:59N 37°52' W 122°19'0 0.0
2017-Dec-07 20:29N 37°52' W 122°19'0 0.0
2017-Dec-07 19:59N 37°52' W 122°19'0 0.0
2017-Dec-07 19:23N 37°52' W 122°19'0 0.0
2017-Dec-07 18:59N 37°52' W 122°19'0 0.0
2017-Dec-07 18:29N 37°52' W 122°19'0 0.0
2017-Dec-07 17:59N 37°52' W 122°19'0 0.0
2017-Dec-07 17:26N 37°52' W 122°19'0 0.0
2017-Dec-07 16:44N 37°52' W 122°19'0 0.0
2017-Dec-07 16:29N 37°52' W 122°19'0 0.0
2017-Dec-07 15:59N 37°52' W 122°19'0 0.0
2017-Dec-07 15:26N 37°52' W 122°19'0 0.0
2017-Dec-07 14:59N 37°52' W 122°19'0 0.0
2017-Dec-07 14:26N 37°52' W 122°19'0 0.0
2017-Dec-07 13:53N 37°52' W 122°19'0 0.0
2017-Dec-07 13:26N 37°52' W 122°19'0 0.0
2017-Dec-07 12:55N 37°52' W 122°19'0 0.0
2017-Dec-07 12:28N 37°52' W 122°19'0 0.0
2017-Dec-07 11:55N 37°52' W 122°19'0 0.0
2017-Dec-07 11:28N 37°52' W 122°19'0 0.0
2017-Dec-07 10:58N 37°52' W 122°19'0 0.0
2017-Dec-07 10:28N 37°52' W 122°19'0 0.0
2017-Dec-07 09:55N 37°52' W 122°19'0 0.0
2017-Dec-07 09:28N 37°52' W 122°19'0 0.0
2017-Dec-07 08:58N 37°52' W 122°19'0 0.0
2017-Dec-07 08:25N 37°52' W 122°19'0 0.0
2017-Dec-07 07:58N 37°52' W 122°19'0 0.0
2017-Dec-07 07:28N 37°52' W 122°19'0 0.0
2017-Dec-07 06:58N 37°52' W 122°19'0 0.0
2017-Dec-07 06:28N 37°52' W 122°19'0 0.0
2017-Dec-07 05:58N 37°52' W 122°19'0 0.0
2017-Dec-07 05:28N 37°52' W 122°19'0 0.0
2017-Dec-07 04:49N 37°52' W 122°19'0 0.0
2017-Dec-07 04:19N 37°52' W 122°19'0 0.0
2017-Dec-07 03:58N 37°52' W 122°19'0 0.0
2017-Dec-07 03:28N 37°52' W 122°19'0 0.0
2017-Dec-07 02:58N 37°52' W 122°19'0 0.0
2017-Dec-07 02:25N 37°52' W 122°19'0 0.0
2017-Dec-07 01:58N 37°52' W 122°19'0 0.0
2017-Dec-07 01:28N 37°52' W 122°19'0 0.0
2017-Dec-07 00:58N 37°52' W 122°19'0 0.0
2017-Dec-07 00:28N 37°52' W 122°19'  
Track history (hours):
 
Tides and Currents Weather Stations Pressure Air Temp Water Temp Dewpoint Dewpoint Depression Visibility Wind Speed Wind Dir Waves Ship Positions

Benjamin Walters

Owner: Stimmel, Lee D, San Francisco, CA. More information available from US FCC via Universal Licensing System and Coast Guard Vessel Documentation Center.

Last reported at 2017-Dec-17 00:18 UTC. Time now 2017-Dec-17 15:39 UTC.
Position N 37°52' W 122°19'.

Length 22 m.

Type: Sailing vessel. MMSI: 367521060.

Date/timePositionNaut miles runAvg speedWind from/ knotsBaromVisibWave heightAir tempDewpointWater temp
2017-Dec-17 00:18N 37°52' W 122°19'0 0.0
2017-Dec-17 00:00N 37°52' W 122°19'0 0.0
2017-Dec-16 23:30N 37°52' W 122°19'0 0.0
2017-Dec-16 22:57N 37°52' W 122°19'0 0.0
2017-Dec-16 22:30N 37°52' W 122°19'2 3.4
2017-Dec-16 22:00N 37°51' W 122°21'2 3.5
2017-Dec-16 21:30N 37°50' W 122°22'1 1.2
2017-Dec-16 20:56N 37°49' W 122°22'0 0.0
2017-Dec-16 20:29N 37°49' W 122°22'0 0.0
2017-Dec-16 20:00N 37°49' W 122°22'1 2.5
2017-Dec-16 19:30N 37°50' W 122°23'2 3.6
2017-Dec-16 19:00N 37°51' W 122°22'3 5.7
2017-Dec-16 18:30N 37°52' W 122°19'0 0.0
2017-Dec-16 17:54N 37°52' W 122°19'0 0.0
2017-Dec-16 17:30N 37°52' W 122°19'0 0.0
2017-Dec-16 17:00N 37°52' W 122°19'0 0.0
2017-Dec-16 16:30N 37°52' W 122°19'0 0.0
2017-Dec-16 16:00N 37°52' W 122°19'0 0.0
2017-Dec-16 15:30N 37°52' W 122°19'0 0.0
2017-Dec-16 15:00N 37°52' W 122°19'0 0.0
2017-Dec-16 14:27N 37°52' W 122°19'0 0.0
2017-Dec-16 14:00N 37°52' W 122°19'0 0.0
2017-Dec-16 13:30N 37°52' W 122°19'0 0.0
2017-Dec-16 13:00N 37°52' W 122°19'0 0.0
2017-Dec-16 12:30N 37°52' W 122°19'0 0.0
2017-Dec-16 12:00N 37°52' W 122°19'0 0.0
2017-Dec-16 11:30N 37°52' W 122°19'0 0.0
2017-Dec-16 11:00N 37°52' W 122°19'0 0.0
2017-Dec-16 10:30N 37°52' W 122°19'0 0.0
2017-Dec-16 10:00N 37°52' W 122°19'0 0.0
2017-Dec-16 09:30N 37°52' W 122°19'0 0.0
2017-Dec-16 09:00N 37°52' W 122°19'0 0.0
2017-Dec-16 08:30N 37°52' W 122°19'0 0.0
2017-Dec-16 08:00N 37°52' W 122°19'0 0.0
2017-Dec-16 07:24N 37°52' W 122°19'0 0.0
2017-Dec-16 07:00N 37°52' W 122°19'0 0.0
2017-Dec-16 06:30N 37°52' W 122°19'0 0.0
2017-Dec-16 06:00N 37°52' W 122°19'0 0.0
2017-Dec-16 05:30N 37°52' W 122°19'0 0.0
2017-Dec-16 05:00N 37°52' W 122°19'0 0.0
2017-Dec-16 04:30N 37°52' W 122°19'1 2.0
2017-Dec-16 04:00N 37°52' W 122°20'3 5.2
2017-Dec-16 03:29N 37°49' W 122°21'2 4.1
2017-Dec-16 03:00N 37°51' W 122°22'2 3.3
2017-Dec-16 02:18N 37°52' W 122°19'0 0.0
2017-Dec-16 01:57N 37°52' W 122°19'0 0.0
2017-Dec-16 01:30N 37°52' W 122°19'1 1.5
2017-Dec-16 00:58N 37°51' W 122°20'1 1.7
2017-Dec-16 00:28N 37°52' W 122°19'0 0.0
2017-Dec-15 23:52N 37°52' W 122°19'0 0.0
2017-Dec-15 23:25N 37°52' W 122°19'0 0.0
2017-Dec-15 22:55N 37°52' W 122°19'0 0.0
2017-Dec-15 04:16N 37°52' W 122°19'0 0.0
2017-Dec-15 03:58N 37°52' W 122°19'0 0.0
2017-Dec-15 02:28N 37°52' W 122°19'0 0.0
2017-Dec-15 00:49N 37°52' W 122°19'0 0.0
2017-Dec-15 00:28N 37°52' W 122°19'0 0.0
2017-Dec-13 00:43N 37°52' W 122°19'0 0.0
2017-Dec-13 00:25N 37°52' W 122°19'0 0.0
2017-Dec-12 23:59N 37°52' W 122°19'0 0.0
2017-Dec-12 23:29N 37°52' W 122°19'0 0.0
2017-Dec-12 22:56N 37°52' W 122°19'0 0.0
2017-Dec-12 19:27N 37°52' W 122°19'  
2017-Dec-10 00:04N 37°52' W 122°19'0 0.0
2017-Dec-09 23:58N 37°52' W 122°19'0 0.0
2017-Dec-09 23:28N 37°52' W 122°19'0 0.0
2017-Dec-09 22:58N 37°52' W 122°19'0 0.0
2017-Dec-09 22:28N 37°52' W 122°19'0 0.0
2017-Dec-09 21:52N 37°52' W 122°19'0 0.0
2017-Dec-09 21:22N 37°52' W 122°19'0 0.0
2017-Dec-09 20:58N 37°52' W 122°19'0 0.0
2017-Dec-09 20:25N 37°52' W 122°19'0 0.0
2017-Dec-09 19:58N 37°52' W 122°19'0 0.0
2017-Dec-09 19:28N 37°52' W 122°19'0 0.0
2017-Dec-09 18:49N 37°52' W 122°19'0 0.0
2017-Dec-09 18:28N 37°52' W 122°19'0 0.0
2017-Dec-09 17:58N 37°52' W 122°19'0 0.0
2017-Dec-09 03:48N 37°52' W 122°19'0 0.0
2017-Dec-09 03:30N 37°52' W 122°19'0 0.0
2017-Dec-09 03:00N 37°52' W 122°19'0 0.0
2017-Dec-09 02:30N 37°52' W 122°19'0 0.0
2017-Dec-09 02:00N 37°52' W 122°19'0 0.0
2017-Dec-09 01:24N 37°52' W 122°19'0 0.0
2017-Dec-09 01:00N 37°52' W 122°19'0 0.0
2017-Dec-09 00:30N 37°52' W 122°19'0 0.0
2017-Dec-09 00:00N 37°52' W 122°19'0 0.0
2017-Dec-08 23:30N 37°52' W 122°19'0 0.0
2017-Dec-08 23:00N 37°52' W 122°19'0 0.0
2017-Dec-08 22:27N 37°52' W 122°19'0 0.0
2017-Dec-08 22:00N 37°52' W 122°19'0 0.0
2017-Dec-08 21:30N 37°52' W 122°19'0 0.0
2017-Dec-08 21:00N 37°52' W 122°19'0 0.0
2017-Dec-08 20:15N 37°52' W 122°19'0 0.0
2017-Dec-08 20:00N 37°52' W 122°19'0 0.0
2017-Dec-08 19:27N 37°52' W 122°19'0 0.0
2017-Dec-08 18:57N 37°52' W 122°19'0 0.0
2017-Dec-08 18:30N 37°52' W 122°19'0 0.0
2017-Dec-08 18:00N 37°52' W 122°19'0 0.0
2017-Dec-08 17:30N 37°52' W 122°19'0 0.0
2017-Dec-08 16:54N 37°52' W 122°19'0 0.0
2017-Dec-08 16:27N 37°52' W 122°19'0 0.0
2017-Dec-08 16:00N 37°52' W 122°19'0 0.0
2017-Dec-08 15:27N 37°52' W 122°19'0 0.0
2017-Dec-08 15:00N 37°52' W 122°19'0 0.0
2017-Dec-08 14:18N 37°52' W 122°19'0 0.0
2017-Dec-08 13:57N 37°52' W 122°19'0 0.0
2017-Dec-08 13:30N 37°52' W 122°19'0 0.0
2017-Dec-08 12:57N 37°52' W 122°19'0 0.0
2017-Dec-08 12:30N 37°52' W 122°19'0 0.0
2017-Dec-08 11:54N 37°52' W 122°19'0 0.0
2017-Dec-08 11:30N 37°52' W 122°19'0 0.0
2017-Dec-08 11:00N 37°52' W 122°19'0 0.0
2017-Dec-08 10:30N 37°52' W 122°19'0 0.0
2017-Dec-08 10:00N 37°52' W 122°19'0 0.0
2017-Dec-08 09:30N 37°52' W 122°19'0 0.0
2017-Dec-08 09:00N 37°52' W 122°19'0 0.0
2017-Dec-08 08:30N 37°52' W 122°19'0 0.0
2017-Dec-08 08:00N 37°52' W 122°19'0 0.0
2017-Dec-08 07:30N 37°52' W 122°19'0 0.0
2017-Dec-08 06:51N 37°52' W 122°19'0 0.0
2017-Dec-08 06:21N 37°52' W 122°19'0 0.0
2017-Dec-08 05:57N 37°52' W 122°19'0 0.0
2017-Dec-08 05:30N 37°52' W 122°19'0 0.0
2017-Dec-08 05:00N 37°52' W 122°19'0 0.0
2017-Dec-08 04:27N 37°52' W 122°19'0 0.0
2017-Dec-08 04:00N 37°52' W 122°19'0 0.0
2017-Dec-08 03:30N 37°52' W 122°19'0 0.0
2017-Dec-08 02:57N 37°52' W 122°19'0 0.0
2017-Dec-08 02:30N 37°52' W 122°19'0 0.0
2017-Dec-08 01:59N 37°52' W 122°19'0 0.0
2017-Dec-08 01:26N 37°52' W 122°19'0 0.0
2017-Dec-08 00:56N 37°52' W 122°19'0 0.0
2017-Dec-08 00:23N 37°52' W 122°19'0 0.0
2017-Dec-07 23:59N 37°52' W 122°19'0 0.0
2017-Dec-07 23:29N 37°52' W 122°19'0 0.0
2017-Dec-07 22:59N 37°52' W 122°19'0 0.0
2017-Dec-07 22:29N 37°52' W 122°19'0 0.0
2017-Dec-07 21:53N 37°52' W 122°19'0 0.0
2017-Dec-07 21:29N 37°52' W 122°19'0 0.0
2017-Dec-07 20:59N 37°52' W 122°19'0 0.0
2017-Dec-07 20:29N 37°52' W 122°19'0 0.0
2017-Dec-07 19:59N 37°52' W 122°19'0 0.0
2017-Dec-07 19:23N 37°52' W 122°19'0 0.0
2017-Dec-07 18:59N 37°52' W 122°19'0 0.0
2017-Dec-07 18:29N 37°52' W 122°19'0 0.0
2017-Dec-07 17:59N 37°52' W 122°19'0 0.0
2017-Dec-07 17:26N 37°52' W 122°19'0 0.0
2017-Dec-07 16:44N 37°52' W 122°19'0 0.0
2017-Dec-07 16:29N 37°52' W 122°19'0 0.0
2017-Dec-07 15:59N 37°52' W 122°19'0 0.0
2017-Dec-07 15:26N 37°52' W 122°19'0 0.0
2017-Dec-07 14:59N 37°52' W 122°19'0 0.0
2017-Dec-07 14:26N 37°52' W 122°19'0 0.0
2017-Dec-07 13:53N 37°52' W 122°19'0 0.0
2017-Dec-07 13:26N 37°52' W 122°19'0 0.0
2017-Dec-07 12:55N 37°52' W 122°19'0 0.0
2017-Dec-07 12:28N 37°52' W 122°19'0 0.0
2017-Dec-07 11:55N 37°52' W 122°19'0 0.0
2017-Dec-07 11:28N 37°52' W 122°19'0 0.0
2017-Dec-07 10:58N 37°52' W 122°19'0 0.0
2017-Dec-07 10:28N 37°52' W 122°19'0 0.0
2017-Dec-07 09:55N 37°52' W 122°19'0 0.0
2017-Dec-07 09:28N 37°52' W 122°19'0 0.0
2017-Dec-07 08:58N 37°52' W 122°19'0 0.0
2017-Dec-07 08:25N 37°52' W 122°19'0 0.0
2017-Dec-07 07:58N 37°52' W 122°19'0 0.0
2017-Dec-07 07:28N 37°52' W 122°19'0 0.0
2017-Dec-07 06:58N 37°52' W 122°19'0 0.0
2017-Dec-07 06:28N 37°52' W 122°19'0 0.0
2017-Dec-07 05:58N 37°52' W 122°19'0 0.0
2017-Dec-07 05:28N 37°52' W 122°19'0 0.0
2017-Dec-07 04:49N 37°52' W 122°19'0 0.0
2017-Dec-07 04:19N 37°52' W 122°19'0 0.0
2017-Dec-07 03:58N 37°52' W 122°19'0 0.0
2017-Dec-07 03:28N 37°52' W 122°19'0 0.0
2017-Dec-07 02:58N 37°52' W 122°19'0 0.0
2017-Dec-07 02:25N 37°52' W 122°19'0 0.0
2017-Dec-07 01:58N 37°52' W 122°19'0 0.0
2017-Dec-07 01:28N 37°52' W 122°19'0 0.0
2017-Dec-07 00:58N 37°52' W 122°19'0 0.0
2017-Dec-07 00:28N 37°52' W 122°19'  

Dump ship's entire track history